メインページ
METAR-TAF:

METAR-TAF

空港 :

ワガドゥグー, ブルキナファソ

ワガドゥグー空港

緯度: 12-21N, 経度: 001-31W, 海抜: 316m

現時点の気象観測

当レポートは31分前の23:00(UTC)に作成
変向風 2kt
気温 32°C
湿度 38%
気圧 1012 hPa
視程10km以上
1,500メートル以下は雲なし、積乱雲なし

METAR: DFFD 232300Z VRB02KT CAVOK 32/16 Q1012 NOSIG

時間: 23:31 (23:31 UTC)

予報

当レポートは6時間31分前の17:00(UTC)に作成
予報は23日の 18時(UTC)から 24日の 24時(UTC)まで有効
西/南西の風 8kt
視程: 8000m
高度2600ftの雲はほとんどない
確率 30% :
23日の 18時(UTC)から 23日の 24時(UTC)まで一時的に
高度2600ftの雲はほとんどない
高度4000ftの雲はほとんどない, 積乱雲.
激しい雷雨
24日の 16時(UTC)から 24日の 24時(UTC)まで一時的に
視程: 4000m
高度2600ftの雲は散在している
高度4000ftの雲はほとんどない, 積乱雲.
激しい雷雨, 雨

TAF: DFFD 231700Z 2318/2424 24008KT 8000 FEW026 PROB30 TEMPO 2318/2324 TS FEW026 FEW040CB TEMPO 2416/2424 4000 TSRA SCT026 FEW040CB

4,000以上の空港の気象観測と天気予報(METAR報とTAF報)

利用可能な観測所は地図上に黄色い丸と赤い丸で示す。

丸の上にカーソルを重ねると観測所名を参照できる。

次にクリックすると気象観測と天気予報を参照できる。

マップの切り替え:黒色「×」印の緑ボタンをクリックして拡大、「-」印の緑ボタンをクリックして縮小、緑色の三角印をクリックして隣りの地図に切り替え


METAR-TAF: